createdAt,value
2022-08-27T00:01:16.282Z,979.65
2022-08-27T00:06:54.200Z,979.76
2022-08-27T00:12:24.125Z,979.89
2022-08-27T00:17:55.894Z,979.9
2022-08-27T00:23:27.709Z,979.86
2022-08-27T00:28:59.277Z,979.87
2022-08-27T00:34:31.026Z,979.73
2022-08-27T00:40:03.141Z,979.65
2022-08-27T00:45:34.574Z,980.03
2022-08-27T00:51:06.173Z,979.83
2022-08-27T00:56:37.917Z,979.88
2022-08-27T01:02:09.912Z,979.87
2022-08-27T01:07:45.730Z,979.97
2022-08-27T01:13:18.045Z,979.91
2022-08-27T01:18:49.146Z,979.75
2022-08-27T01:24:20.885Z,979.78
2022-08-27T01:29:52.602Z,979.29
2022-08-27T01:35:24.370Z,979.32
2022-08-27T01:40:56.405Z,979.58
2022-08-27T01:46:27.919Z,979.56
2022-08-27T01:51:59.551Z,979.67
2022-08-27T01:57:31.226Z,979.54
2022-08-27T02:03:03.002Z,979.43
2022-08-27T02:08:39.079Z,978.95
2022-08-27T02:14:14.285Z,979.13
2022-08-27T02:19:42.461Z,979.29
2022-08-27T02:25:14.224Z,979.05
2022-08-27T02:30:46.090Z,978.99
2022-08-27T02:36:17.718Z,978.94
2022-08-27T02:41:49.483Z,979.06
2022-08-27T02:47:21.130Z,979.05
2022-08-27T02:52:52.965Z,978.84
2022-08-27T02:58:24.537Z,978.96
2022-08-27T03:03:56.465Z,978.94
2022-08-27T03:09:32.429Z,979.12
2022-08-27T03:15:04.208Z,979.18
2022-08-27T03:20:35.881Z,979.04
2022-08-27T03:26:07.805Z,979.19
2022-08-27T03:31:39.595Z,979.22
2022-08-27T03:37:11.078Z,978.72
2022-08-27T03:42:43.149Z,978.98
2022-08-27T03:48:14.480Z,979.27
2022-08-27T03:53:46.253Z,978.84
2022-08-27T03:59:18.010Z,979.02
2022-08-27T04:04:49.690Z,978.91
2022-08-27T04:10:25.716Z,978.82
2022-08-27T04:15:57.684Z,978.88
2022-08-27T04:21:29.250Z,979.07
2022-08-27T04:27:00.926Z,979.28
2022-08-27T04:32:34.998Z,979.1
2022-08-27T04:38:04.535Z,979.24
2022-08-27T04:43:36.194Z,979.25
2022-08-27T04:49:11.102Z,979.12
2022-08-27T04:54:39.588Z,979.7
2022-08-27T05:00:11.335Z,979.0
2022-08-27T05:05:43.667Z,979.48
2022-08-27T05:11:19.201Z,979.63
2022-08-27T05:16:50.898Z,979.38
2022-08-27T05:22:23.938Z,979.65
2022-08-27T05:27:54.312Z,979.49
2022-08-27T05:33:26.182Z,979.47
2022-08-27T05:38:57.803Z,979.33
2022-08-27T05:44:42.838Z,979.65
2022-08-27T05:50:01.548Z,979.31
2022-08-27T05:55:33.038Z,979.36
2022-08-27T06:01:10.785Z,979.13
2022-08-27T06:06:37.938Z,979.46
2022-08-27T06:12:12.528Z,979.14
2022-08-27T06:17:44.296Z,979.41
2022-08-27T06:23:15.950Z,979.54
2022-08-27T06:28:47.733Z,979.6
2022-08-27T06:34:19.550Z,979.61
2022-08-27T06:39:51.167Z,979.45
2022-08-27T06:45:22.886Z,979.58
2022-08-27T06:50:55.796Z,979.7
2022-08-27T06:56:26.225Z,979.69
2022-08-27T07:01:58.228Z,979.81
2022-08-27T07:07:46.856Z,979.73
2022-08-27T07:13:05.850Z,979.58
2022-08-27T07:18:41.214Z,979.64
2022-08-27T07:24:09.375Z,979.87
2022-08-27T07:29:40.995Z,980.06
2022-08-27T07:35:12.743Z,979.62
2022-08-27T07:40:44.506Z,979.69
2022-08-27T07:46:16.314Z,980.2
2022-08-27T07:51:47.826Z,980.27
2022-08-27T07:57:19.673Z,980.14
2022-08-27T08:02:51.619Z,979.91
2022-08-27T08:08:23.073Z,980.0
2022-08-27T08:14:01.202Z,980.23
2022-08-27T08:19:32.926Z,980.09
2022-08-27T08:25:04.877Z,979.9
2022-08-27T08:30:36.847Z,980.08
2022-08-27T08:36:08.383Z,980.26
2022-08-27T08:41:40.061Z,980.26
2022-08-27T08:47:11.799Z,980.31
2022-08-27T08:52:43.490Z,980.59
2022-08-27T08:58:15.368Z,980.46
2022-08-27T09:03:47.113Z,980.91
2022-08-27T09:09:18.685Z,980.57
2022-08-27T09:14:54.771Z,980.19
2022-08-27T09:20:26.550Z,980.47
2022-08-27T09:25:58.297Z,980.9
2022-08-27T09:31:29.979Z,980.59
2022-08-27T09:37:01.697Z,980.9
2022-08-27T09:42:33.561Z,980.81
2022-08-27T09:48:05.302Z,980.42
2022-08-27T09:53:36.858Z,980.27
